createdAt,value
2019-03-26T00:01:56.245Z,6.12
2019-03-26T00:04:24.645Z,5.55
2019-03-26T00:06:53.120Z,5.22
2019-03-26T00:09:21.536Z,4.53
2019-03-26T00:11:50.040Z,7.95
2019-03-26T00:14:18.469Z,6.33
2019-03-26T00:16:46.948Z,9.08
2019-03-26T00:19:15.424Z,9.33
2019-03-26T00:21:43.829Z,3.83
2019-03-26T00:24:12.300Z,7.78
2019-03-26T00:26:41.587Z,7.12
2019-03-26T00:29:10.000Z,6.00
2019-03-26T00:31:38.479Z,6.33
2019-03-26T00:34:18.789Z,5.58
2019-03-26T00:36:36.944Z,5.90
2019-03-26T00:39:06.692Z,5.35
2019-03-26T00:41:37.436Z,6.05
2019-03-26T00:44:05.848Z,9.35
2019-03-26T00:46:34.329Z,11.95
2019-03-26T00:49:02.745Z,6.05
2019-03-26T00:51:31.171Z,6.03
2019-03-26T00:53:59.548Z,9.90
2019-03-26T00:56:28.095Z,5.70
2019-03-26T00:58:56.520Z,7.83
2019-03-26T01:01:25.060Z,1.75
2019-03-26T01:03:54.975Z,6.42
2019-03-26T01:06:23.524Z,7.08
2019-03-26T01:08:51.934Z,10.65
2019-03-26T01:11:20.416Z,8.75
2019-03-26T01:13:48.825Z,10.82
2019-03-26T01:16:17.234Z,5.90
2019-03-26T01:18:45.652Z,6.40
2019-03-26T01:21:14.204Z,7.60
2019-03-26T01:23:44.354Z,7.00
2019-03-26T01:26:12.738Z,7.72
2019-03-26T01:28:41.147Z,9.35
2019-03-26T01:31:09.628Z,7.45
2019-03-26T01:33:38.039Z,4.72
2019-03-26T01:36:06.522Z,3.00
2019-03-26T01:38:34.932Z,4.55
2019-03-26T01:41:03.512Z,5.28
2019-03-26T01:43:31.956Z,5.70
2019-03-26T01:46:00.371Z,3.27
2019-03-26T01:48:28.780Z,4.10
2019-03-26T01:50:57.181Z,3.67
2019-03-26T01:53:25.592Z,4.25
2019-03-26T01:55:53.989Z,6.70
2019-03-26T01:58:22.405Z,6.22
2019-03-26T02:00:50.879Z,9.70
2019-03-26T02:03:19.287Z,5.47
2019-03-26T02:05:47.696Z,6.83
2019-03-26T02:08:16.112Z,12.18
2019-03-26T02:10:44.593Z,8.28
2019-03-26T02:13:13.144Z,9.58
2019-03-26T02:15:41.623Z,3.90
2019-03-26T02:18:10.120Z,6.97
2019-03-26T02:20:38.561Z,10.98
2019-03-26T02:23:06.941Z,5.62
2019-03-26T02:25:35.489Z,7.58
2019-03-26T02:28:03.906Z,9.00
2019-03-26T02:30:32.385Z,10.25
2019-03-26T02:33:00.793Z,5.53
2019-03-26T02:35:29.204Z,6.92
2019-03-26T02:37:57.702Z,11.50
2019-03-26T02:40:26.115Z,9.83
2019-03-26T02:42:54.634Z,7.15
2019-03-26T02:45:23.157Z,12.07
2019-03-26T02:47:51.625Z,9.55
2019-03-26T02:50:20.131Z,9.10
2019-03-26T02:52:48.526Z,11.10
2019-03-26T02:55:16.933Z,10.78
2019-03-26T02:57:45.434Z,10.05
2019-03-26T03:00:13.820Z,10.38
2019-03-26T03:02:42.240Z,5.65
2019-03-26T03:05:10.782Z,9.63
2019-03-26T03:07:39.192Z,8.75
2019-03-26T03:10:07.677Z,8.90
2019-03-26T03:12:36.094Z,8.95
2019-03-26T03:15:05.636Z,9.25
2019-03-26T03:17:34.048Z,6.70
2019-03-26T03:20:02.532Z,5.37
2019-03-26T03:22:30.948Z,9.78
2019-03-26T03:24:59.361Z,8.25
2019-03-26T03:27:27.849Z,7.33
2019-03-26T03:29:56.437Z,10.38
2019-03-26T03:32:25.329Z,6.72
2019-03-26T03:34:53.811Z,7.87
2019-03-26T03:37:22.332Z,9.75
2019-03-26T03:39:50.716Z,9.30
2019-03-26T03:42:19.236Z,12.37
2019-03-26T03:44:47.725Z,11.00
2019-03-26T03:47:16.207Z,10.10
2019-03-26T03:49:44.699Z,14.20
2019-03-26T03:52:13.112Z,12.93
2019-03-26T03:54:41.525Z,7.75
2019-03-26T03:57:09.942Z,9.35
2019-03-26T03:59:38.345Z,7.10
2019-03-26T04:02:06.839Z,9.35
2019-03-26T04:04:35.250Z,12.25
2019-03-26T04:07:03.817Z,8.50
2019-03-26T04:09:32.228Z,10.60
2019-03-26T04:12:00.708Z,8.30
2019-03-26T04:14:29.195Z,6.92
2019-03-26T04:16:57.678Z,8.78
2019-03-26T04:19:26.178Z,9.23
2019-03-26T04:21:54.584Z,6.62
2019-03-26T04:24:23.060Z,7.92
2019-03-26T04:26:51.469Z,6.30
2019-03-26T04:29:19.952Z,10.03
2019-03-26T04:31:48.424Z,9.20
2019-03-26T04:34:17.827Z,7.67
2019-03-26T04:36:46.335Z,10.25
2019-03-26T04:39:14.873Z,10.88
2019-03-26T04:41:43.297Z,12.43
2019-03-26T04:44:11.775Z,8.70
2019-03-26T04:46:40.224Z,13.53
2019-03-26T04:49:08.634Z,13.93
2019-03-26T04:51:37.048Z,20.43
2019-03-26T04:54:05.592Z,6.50
2019-03-26T04:56:34.045Z,12.20
2019-03-26T04:59:02.445Z,7.17
2019-03-26T05:01:30.923Z,49.08
2019-03-26T05:03:59.341Z,18.57
2019-03-26T05:06:37.362Z,31.82
2019-03-26T05:08:57.894Z,46.00
2019-03-26T05:11:26.416Z,23.70
2019-03-26T05:13:54.854Z,26.80
2019-03-26T05:16:23.333Z,38.83
2019-03-26T05:18:51.880Z,25.05
2019-03-26T05:21:20.296Z,28.27
2019-03-26T05:23:51.711Z,23.70
2019-03-26T05:26:18.768Z,22.45
2019-03-26T05:28:47.253Z,17.77
2019-03-26T05:31:15.678Z,14.10
2019-03-26T05:33:44.148Z,16.52
2019-03-26T05:36:12.565Z,24.00
2019-03-26T05:38:40.976Z,43.17
2019-03-26T05:41:10.618Z,56.20
2019-03-26T05:43:39.272Z,20.55
2019-03-26T05:46:07.762Z,59.65
2019-03-26T05:48:36.324Z,29.12
2019-03-26T05:51:04.811Z,55.83
2019-03-26T05:53:33.313Z,30.92
2019-03-26T05:56:01.792Z,35.33
2019-03-26T05:58:30.284Z,10.10
2019-03-26T06:00:58.777Z,42.85
2019-03-26T06:03:27.312Z,101.55
2019-03-26T06:05:55.729Z,25.05
2019-03-26T06:08:24.205Z,22.07
2019-03-26T06:10:52.698Z,26.68
2019-03-26T06:13:21.221Z,33.18
2019-03-26T06:15:49.818Z,32.67
2019-03-26T06:18:18.228Z,25.10
2019-03-26T06:20:46.684Z,30.08
2019-03-26T06:23:15.097Z,40.75
2019-03-26T06:25:43.517Z,28.40
2019-03-26T06:28:12.002Z,32.35
2019-03-26T06:30:40.400Z,24.23
2019-03-26T06:33:08.883Z,20.32
2019-03-26T06:35:37.462Z,12.43
2019-03-26T06:38:05.948Z,18.07
2019-03-26T06:40:34.432Z,29.37
2019-03-26T06:43:02.865Z,21.45
2019-03-26T06:45:31.339Z,20.77
2019-03-26T06:47:59.758Z,31.97
2019-03-26T06:50:28.179Z,31.95
2019-03-26T06:52:56.748Z,18.37
2019-03-26T06:55:25.229Z,21.77
2019-03-26T06:57:53.773Z,25.52
2019-03-26T07:00:32.611Z,23.12
2019-03-26T07:03:01.659Z,17.73
2019-03-26T07:05:30.078Z,15.88
2019-03-26T07:07:58.482Z,18.48
2019-03-26T07:10:29.097Z,17.02
2019-03-26T07:12:58.244Z,19.80
2019-03-26T07:15:26.657Z,15.83
2019-03-26T07:17:55.340Z,22.40
2019-03-26T07:20:23.747Z,31.80
2019-03-26T07:22:52.171Z,24.82
2019-03-26T07:25:20.816Z,24.92
2019-03-26T07:27:49.316Z,22.05
2019-03-26T07:30:36.090Z,28.60
2019-03-26T07:33:04.582Z,16.87
2019-03-26T07:35:33.176Z,9.95
2019-03-26T07:38:01.585Z,18.00
2019-03-26T07:40:30.000Z,16.35
2019-03-26T07:42:58.416Z,18.02
2019-03-26T07:45:26.881Z,12.82
2019-03-26T07:47:55.296Z,17.90
2019-03-26T07:50:23.776Z,17.35
2019-03-26T07:52:52.791Z,22.17
2019-03-26T07:55:21.286Z,15.85
2019-03-26T07:57:49.772Z,17.62
2019-03-26T08:00:21.439Z,15.88
2019-03-26T08:02:49.926Z,14.85
2019-03-26T08:05:29.268Z,15.50
2019-03-26T08:07:57.766Z,19.73
2019-03-26T08:10:18.492Z,29.27
2019-03-26T08:12:47.002Z,23.62
2019-03-26T08:15:15.506Z,17.75
2019-03-26T08:17:45.368Z,20.82
2019-03-26T08:20:14.035Z,17.73
2019-03-26T08:22:42.572Z,11.80
2019-03-26T08:25:11.069Z,18.00
2019-03-26T08:27:39.548Z,12.28
2019-03-26T08:30:07.959Z,13.62
2019-03-26T08:32:37.192Z,12.37
2019-03-26T08:35:06.060Z,15.18
2019-03-26T08:37:34.480Z,27.65
2019-03-26T08:40:03.471Z,74.10
2019-03-26T08:42:31.961Z,79.50
2019-03-26T08:45:00.388Z,32.10
2019-03-26T08:47:28.854Z,20.75
2019-03-26T08:49:57.336Z,65.52
2019-03-26T08:52:25.856Z,31.82
2019-03-26T08:54:54.305Z,27.22
2019-03-26T08:57:22.716Z,33.65
2019-03-26T08:59:51.136Z,20.00
2019-03-26T09:02:19.613Z,39.70
2019-03-26T09:04:48.112Z,37.33
2019-03-26T09:07:16.648Z,33.35
2019-03-26T09:09:45.087Z,20.82
2019-03-26T09:12:13.494Z,38.08
2019-03-26T09:14:41.983Z,13.78
2019-03-26T09:17:10.392Z,29.42
2019-03-26T09:19:38.804Z,24.63
2019-03-26T09:22:07.296Z,25.70
2019-03-26T09:24:35.711Z,19.00
2019-03-26T09:27:04.309Z,32.08
2019-03-26T09:29:32.854Z,20.30
2019-03-26T09:32:01.340Z,27.17
2019-03-26T09:34:31.816Z,23.90
2019-03-26T09:37:00.412Z,23.45
2019-03-26T09:39:28.990Z,18.80
2019-03-26T09:41:57.397Z,14.85
2019-03-26T09:44:25.908Z,12.23
2019-03-26T09:46:54.328Z,21.40
2019-03-26T09:49:22.816Z,16.07
2019-03-26T09:51:51.301Z,12.78
2019-03-26T09:54:19.796Z,13.35
2019-03-26T09:56:48.352Z,12.30
2019-03-26T09:59:16.840Z,17.23
2019-03-26T10:01:45.248Z,19.00
2019-03-26T10:04:13.802Z,16.32
2019-03-26T10:06:42.228Z,17.98
2019-03-26T10:09:10.708Z,15.55
2019-03-26T10:11:39.116Z,16.60
2019-03-26T10:14:07.573Z,23.05
2019-03-26T10:16:36.056Z,14.75
2019-03-26T10:19:04.600Z,16.50
2019-03-26T10:21:34.946Z,17.15
2019-03-26T10:24:03.151Z,19.02
2019-03-26T10:26:31.708Z,13.00
2019-03-26T10:29:13.672Z,13.90
2019-03-26T10:31:30.181Z,15.83
2019-03-26T10:33:58.665Z,15.50
2019-03-26T10:36:27.112Z,25.48
2019-03-26T10:39:05.159Z,21.12
2019-03-26T10:41:25.757Z,10.05
2019-03-26T10:43:54.295Z,11.12
2019-03-26T10:46:22.866Z,10.38
2019-03-26T10:48:51.299Z,12.00
2019-03-26T10:51:19.717Z,12.63
2019-03-26T10:53:48.215Z,12.55
2019-03-26T10:56:16.626Z,15.75
2019-03-26T10:58:45.096Z,9.13
2019-03-26T11:01:13.592Z,8.48
2019-03-26T11:03:41.983Z,12.55
2019-03-26T11:06:10.545Z,19.52
2019-03-26T11:08:38.952Z,19.57
2019-03-26T11:11:07.524Z,18.80
2019-03-26T11:13:36.020Z,20.35
2019-03-26T11:16:04.433Z,17.52
2019-03-26T11:18:32.924Z,21.50
2019-03-26T11:21:03.055Z,18.35
2019-03-26T11:23:31.573Z,13.93
2019-03-26T11:25:59.981Z,16.35
2019-03-26T11:28:28.475Z,17.95
2019-03-26T11:30:57.020Z,20.32
2019-03-26T11:33:25.438Z,17.70
2019-03-26T11:35:53.928Z,15.63
2019-03-26T11:38:22.423Z,20.90
2019-03-26T11:40:50.893Z,13.50
2019-03-26T11:43:19.377Z,13.88
2019-03-26T11:45:47.798Z,9.18
2019-03-26T11:48:16.276Z,9.83
2019-03-26T11:50:44.843Z,13.40
2019-03-26T11:53:13.356Z,12.47
2019-03-26T11:55:41.852Z,20.25
2019-03-26T11:58:10.260Z,14.73
2019-03-26T12:00:39.516Z,10.48
2019-03-26T12:03:07.935Z,14.47
2019-03-26T12:05:36.347Z,13.32
2019-03-26T12:08:04.829Z,12.07
2019-03-26T12:10:33.390Z,21.73
2019-03-26T12:13:01.739Z,60.60
2019-03-26T12:15:30.223Z,107.37
2019-03-26T12:17:58.655Z,27.05
2019-03-26T12:20:27.071Z,22.27
2019-03-26T12:22:55.479Z,13.98
2019-03-26T12:25:23.966Z,12.90
2019-03-26T12:27:52.372Z,13.28
2019-03-26T12:30:34.321Z,30.23
2019-03-26T12:35:30.700Z,29.30
2019-03-26T12:37:59.179Z,22.45
2019-03-26T12:40:27.733Z,10.85
2019-03-26T12:42:56.157Z,18.52
2019-03-26T12:45:24.708Z,9.98
2019-03-26T12:47:53.124Z,14.55
2019-03-26T12:50:21.670Z,9.15
2019-03-26T12:52:50.083Z,10.63
2019-03-26T12:55:18.624Z,4.90
2019-03-26T12:57:47.044Z,23.57
2019-03-26T13:00:15.535Z,14.50
2019-03-26T13:02:44.050Z,18.77
2019-03-26T13:05:12.676Z,18.60
2019-03-26T13:07:41.091Z,13.18
2019-03-26T13:10:13.736Z,14.53
2019-03-26T13:12:39.857Z,9.10
2019-03-26T13:15:08.442Z,9.43
2019-03-26T13:17:36.857Z,12.68
2019-03-26T13:20:07.114Z,6.22
2019-03-26T13:22:35.536Z,13.22
2019-03-26T13:25:05.889Z,17.05
2019-03-26T13:27:34.315Z,20.23
2019-03-26T13:30:02.795Z,19.35
2019-03-26T13:32:31.204Z,14.25
2019-03-26T13:34:59.764Z,12.00
2019-03-26T13:37:28.177Z,15.32
2019-03-26T13:39:56.663Z,10.25
2019-03-26T13:42:25.069Z,10.13
2019-03-26T13:44:53.661Z,14.50
2019-03-26T13:47:22.042Z,18.82
2019-03-26T13:49:50.528Z,11.45
2019-03-26T13:52:20.434Z,10.68
2019-03-26T13:54:49.951Z,12.07
2019-03-26T13:57:18.356Z,14.58
2019-03-26T13:59:49.059Z,9.48
2019-03-26T14:02:19.145Z,8.98
2019-03-26T14:04:47.558Z,12.25
2019-03-26T14:07:15.996Z,6.58
2019-03-26T14:09:44.397Z,9.05
2019-03-26T14:12:12.796Z,14.03
2019-03-26T14:14:41.213Z,5.60
2019-03-26T14:17:09.693Z,11.70
2019-03-26T14:19:38.186Z,5.87
2019-03-26T14:22:06.592Z,6.83
2019-03-26T14:24:35.078Z,6.78
2019-03-26T14:27:03.660Z,7.70
2019-03-26T14:29:32.162Z,4.72
2019-03-26T14:32:00.572Z,4.47
2019-03-26T14:34:29.125Z,4.85
2019-03-26T14:36:57.714Z,6.78
2019-03-26T14:39:26.192Z,4.70
2019-03-26T14:41:54.728Z,6.30
2019-03-26T14:44:23.213Z,5.72
2019-03-26T14:46:51.704Z,7.17
2019-03-26T14:49:20.107Z,6.53
2019-03-26T14:51:48.868Z,8.48
2019-03-26T14:54:17.278Z,5.78
2019-03-26T14:56:45.688Z,5.87
2019-03-26T14:59:14.096Z,5.22
2019-03-26T15:01:42.509Z,10.23
2019-03-26T15:04:10.976Z,11.88
2019-03-26T15:06:39.452Z,11.10
2019-03-26T15:09:08.579Z,11.73
2019-03-26T15:11:37.135Z,13.62
2019-03-26T15:14:05.620Z,15.00
2019-03-26T15:16:34.165Z,11.28
2019-03-26T15:19:02.583Z,14.07
2019-03-26T15:21:31.055Z,15.28
2019-03-26T15:23:59.421Z,14.87
2019-03-26T15:26:27.976Z,13.20
2019-03-26T15:28:56.392Z,14.18
2019-03-26T15:31:24.798Z,14.87
2019-03-26T15:33:53.279Z,12.37
2019-03-26T15:36:21.701Z,14.68
2019-03-26T15:38:50.119Z,11.33
2019-03-26T15:41:21.776Z,11.12
2019-03-26T15:43:48.591Z,15.30
2019-03-26T15:46:17.071Z,7.85
2019-03-26T15:48:45.488Z,6.78
2019-03-26T15:51:13.899Z,13.15
2019-03-26T15:53:42.379Z,12.10
2019-03-26T15:56:10.793Z,12.30
2019-03-26T15:58:39.212Z,11.18
2019-03-26T16:01:07.628Z,13.28
2019-03-26T16:03:36.116Z,11.93
2019-03-26T16:06:05.068Z,6.40
2019-03-26T16:08:35.988Z,11.78
2019-03-26T16:11:03.680Z,3.92
2019-03-26T16:13:35.487Z,7.22
2019-03-26T16:16:02.368Z,11.20
2019-03-26T16:18:30.772Z,7.70
2019-03-26T16:20:59.359Z,10.08
2019-03-26T16:23:27.780Z,13.98
2019-03-26T16:25:56.189Z,14.90
2019-03-26T16:28:24.609Z,10.10
2019-03-26T16:30:53.013Z,10.30
2019-03-26T16:33:21.437Z,7.03
2019-03-26T16:35:49.826Z,15.53
2019-03-26T16:38:18.244Z,8.05
2019-03-26T16:40:46.715Z,8.15
2019-03-26T16:43:17.414Z,6.28
2019-03-26T16:45:48.119Z,6.53
2019-03-26T16:48:16.604Z,8.70
2019-03-26T16:50:45.088Z,10.05
2019-03-26T16:53:15.514Z,7.28
2019-03-26T16:55:43.740Z,7.78
2019-03-26T16:58:12.226Z,6.97
2019-03-26T17:00:40.625Z,6.42
2019-03-26T17:03:09.054Z,10.13
2019-03-26T17:05:37.444Z,4.28
2019-03-26T17:08:05.852Z,8.30
2019-03-26T17:10:34.399Z,11.48
2019-03-26T17:13:02.888Z,16.40
2019-03-26T17:15:31.306Z,10.72
2019-03-26T17:17:59.733Z,13.22
2019-03-26T17:20:28.212Z,10.60
2019-03-26T17:22:56.627Z,6.00
2019-03-26T17:25:25.126Z,4.00
2019-03-26T17:27:53.568Z,10.23
2019-03-26T17:30:22.060Z,8.58
2019-03-26T17:32:50.551Z,12.10
2019-03-26T17:35:18.957Z,4.78
2019-03-26T17:37:58.898Z,7.85
2019-03-26T17:40:17.599Z,5.47
2019-03-26T17:42:45.999Z,5.62
2019-03-26T17:45:14.403Z,4.87
2019-03-26T17:47:42.811Z,5.55
2019-03-26T17:50:11.224Z,9.13
2019-03-26T17:52:39.776Z,6.12
2019-03-26T17:55:08.180Z,6.62
2019-03-26T17:57:37.824Z,8.28
2019-03-26T18:00:14.596Z,6.45
2019-03-26T18:02:43.092Z,5.40
2019-03-26T18:05:20.382Z,14.45
2019-03-26T18:07:48.907Z,15.83
2019-03-26T18:10:17.311Z,9.88
2019-03-26T18:12:46.752Z,10.48
2019-03-26T18:15:15.288Z,13.98
2019-03-26T18:17:43.697Z,9.05
2019-03-26T18:20:12.688Z,8.48
2019-03-26T18:22:41.164Z,8.58
2019-03-26T18:25:09.730Z,11.57
2019-03-26T18:27:38.176Z,14.53
2019-03-26T18:30:06.729Z,17.65
2019-03-26T18:32:35.142Z,13.88
2019-03-26T18:35:03.918Z,16.70
2019-03-26T18:37:32.339Z,23.22
2019-03-26T18:40:00.742Z,16.93
2019-03-26T18:42:29.240Z,11.38
2019-03-26T18:44:57.654Z,14.47
2019-03-26T18:47:26.165Z,12.93
2019-03-26T18:49:54.553Z,11.95
2019-03-26T18:52:22.974Z,11.18
2019-03-26T18:54:51.375Z,10.60
2019-03-26T18:57:19.935Z,10.95
2019-03-26T18:59:48.424Z,16.80
2019-03-26T19:02:17.208Z,17.42
2019-03-26T19:04:45.633Z,16.27
2019-03-26T19:07:14.146Z,19.30
2019-03-26T19:09:42.556Z,16.52
2019-03-26T19:12:11.043Z,18.90
2019-03-26T19:14:39.458Z,15.72
2019-03-26T19:17:07.870Z,10.20
2019-03-26T19:19:36.275Z,13.85
2019-03-26T19:22:04.756Z,13.40
2019-03-26T19:24:33.223Z,9.23
2019-03-26T19:27:04.246Z,6.78
2019-03-26T19:29:31.788Z,7.87
2019-03-26T19:32:01.916Z,9.13
2019-03-26T19:34:30.381Z,12.53
2019-03-26T19:36:58.885Z,13.03
2019-03-26T19:39:29.664Z,11.05
2019-03-26T19:41:58.152Z,7.23
2019-03-26T19:44:26.633Z,14.30
2019-03-26T19:46:55.037Z,15.48
2019-03-26T19:49:23.452Z,8.63
2019-03-26T19:51:51.864Z,16.60
2019-03-26T19:54:20.287Z,13.65
2019-03-26T19:56:48.696Z,13.98
2019-03-26T19:59:17.109Z,15.25
2019-03-26T20:01:47.401Z,12.45
2019-03-26T20:04:15.896Z,12.85
2019-03-26T20:06:44.304Z,12.23
2019-03-26T20:09:12.772Z,7.33
2019-03-26T20:11:41.208Z,8.40
2019-03-26T20:14:09.664Z,8.73
2019-03-26T20:16:42.065Z,8.90
2019-03-26T20:19:08.147Z,11.57
2019-03-26T20:21:36.568Z,13.55
2019-03-26T20:24:05.117Z,12.53
2019-03-26T20:26:33.524Z,13.35
2019-03-26T20:29:01.936Z,23.50
2019-03-26T20:31:30.416Z,17.60
2019-03-26T20:33:58.935Z,19.30
2019-03-26T20:36:27.411Z,23.35
2019-03-26T20:38:55.835Z,19.55
2019-03-26T20:41:24.248Z,16.77
2019-03-26T20:43:52.659Z,18.37
2019-03-26T20:46:21.142Z,15.32
2019-03-26T20:48:49.630Z,14.93
2019-03-26T20:51:18.109Z,20.12
2019-03-26T20:53:46.524Z,15.40
2019-03-26T20:56:15.035Z,17.67
2019-03-26T20:58:43.448Z,17.57
2019-03-26T21:01:11.857Z,17.02
2019-03-26T21:03:40.280Z,17.75
2019-03-26T21:06:08.692Z,26.73
2019-03-26T21:08:37.108Z,20.25
2019-03-26T21:11:05.529Z,20.17
2019-03-26T21:13:33.945Z,16.50
2019-03-26T21:16:02.529Z,20.02
2019-03-26T21:18:30.940Z,18.90
2019-03-26T21:20:59.348Z,18.87
2019-03-26T21:23:27.761Z,14.63
2019-03-26T21:25:56.176Z,21.82
2019-03-26T21:28:24.663Z,14.95
2019-03-26T21:30:53.068Z,17.17
2019-03-26T21:33:21.837Z,11.18
2019-03-26T21:35:50.290Z,14.47
2019-03-26T21:38:18.767Z,10.95
2019-03-26T21:40:47.608Z,11.18
2019-03-26T21:43:16.096Z,12.55
2019-03-26T21:45:44.644Z,9.68
2019-03-26T21:48:13.131Z,9.83
2019-03-26T21:50:41.554Z,13.28
2019-03-26T21:53:09.960Z,16.70
2019-03-26T21:55:38.448Z,11.30
2019-03-26T21:58:06.852Z,9.23
2019-03-26T22:00:35.336Z,11.63
2019-03-26T22:03:03.759Z,12.07
2019-03-26T22:05:32.168Z,9.50
2019-03-26T22:08:00.587Z,11.60
2019-03-26T22:10:29.068Z,14.75
2019-03-26T22:12:57.562Z,10.08
2019-03-26T22:15:25.992Z,10.55
2019-03-26T22:17:54.386Z,14.70
2019-03-26T22:20:22.794Z,17.77
2019-03-26T22:22:51.233Z,9.95
2019-03-26T22:25:19.604Z,14.75
2019-03-26T22:27:48.063Z,11.83
2019-03-26T22:30:16.551Z,16.10
2019-03-26T22:32:45.064Z,7.87
2019-03-26T22:35:13.647Z,9.45
2019-03-26T22:37:42.047Z,8.68
2019-03-26T22:40:10.530Z,9.73
2019-03-26T22:42:39.004Z,11.57
2019-03-26T22:45:08.414Z,9.93
2019-03-26T22:47:40.708Z,8.15
2019-03-26T22:50:09.571Z,9.15
2019-03-26T22:52:38.051Z,6.95
2019-03-26T22:55:09.632Z,7.70
2019-03-26T22:57:38.047Z,7.12
2019-03-26T23:00:12.252Z,10.58
2019-03-26T23:02:40.775Z,12.37
2019-03-26T23:05:09.180Z,9.18
2019-03-26T23:07:37.750Z,5.83
2019-03-26T23:10:07.200Z,12.53
2019-03-26T23:12:35.616Z,6.35
2019-03-26T23:15:05.736Z,6.10
2019-03-26T23:17:34.224Z,7.20
2019-03-26T23:20:02.649Z,5.72
2019-03-26T23:22:31.128Z,8.33
2019-03-26T23:25:01.455Z,6.97
2019-03-26T23:27:29.823Z,5.83
2019-03-26T23:29:58.311Z,6.47
2019-03-26T23:32:26.872Z,9.75
2019-03-26T23:34:55.360Z,7.55
2019-03-26T23:37:23.769Z,4.78
2019-03-26T23:39:52.252Z,6.95
2019-03-26T23:42:20.727Z,6.90
2019-03-26T23:44:58.121Z,6.60
2019-03-26T23:47:19.284Z,5.87
2019-03-26T23:49:47.698Z,5.83
2019-03-26T23:52:16.112Z,7.25
2019-03-26T23:54:44.520Z,7.87
2019-03-26T23:57:14.007Z,7.95
2019-03-26T23:59:42.419Z,9.25
